Time;durP1;ratioP1;P1;durP2;ratioP2;P2;SDS_P1;SDS_P2;PMS_P1;PMS_P2;Temp;Humidity;BMP_temperature;BMP_pressure;BME280_temperature;BME280_humidity;BME280_pressure;Samples;Min_cycle;Max_cycle;Signal;HPM_P1;HPM_P2
2023/04/16 00:02:01;;;;;;;1.52;0.93;;;9.90;66.80;;;;;;5021838;28;20094;-62
2023/04/16 00:04:26;;;;;;;2.63;1.30;;;9.90;66.90;;;;;;5029528;28;20033;-61
2023/04/16 00:06:52;;;;;;;4.15;2.35;;;9.90;67.00;;;;;;5019401;28;20079;-61
2023/04/16 00:09:18;;;;;;;8.80;2.90;;;9.90;67.00;;;;;;5028849;28;20042;-61
2023/04/16 00:11:43;;;;;;;4.22;1.83;;;9.90;67.00;;;;;;5033095;28;20026;-60
2023/04/16 00:14:09;;;;;;;3.40;1.67;;;9.90;67.00;;;;;;5033125;28;20120;-62
2023/04/16 00:16:35;;;;;;;5.60;2.78;;;9.90;67.00;;;;;;5024509;28;20088;-61
2023/04/16 00:19:01;;;;;;;6.55;3.22;;;9.90;67.20;;;;;;5029058;28;20403;-62
2023/04/16 00:21:27;;;;;;;5.53;2.80;;;9.90;67.20;;;;;;5026752;28;20029;-62
2023/04/16 00:23:53;;;;;;;3.67;2.35;;;9.90;67.20;;;;;;5027858;28;20030;-62
2023/04/16 00:26:19;;;;;;;4.18;1.65;;;9.90;67.20;;;;;;5023563;28;20503;-61
2023/04/16 00:28:45;;;;;;;2.00;1.20;;;10.00;67.30;;;;;;5028041;28;20089;-63
2023/04/16 00:31:10;;;;;;;2.28;1.10;;;9.90;67.30;;;;;;5020274;28;20033;-60
2023/04/16 00:33:36;;;;;;;1.10;1.00;;;9.90;67.30;;;;;;5036532;28;20031;-60
2023/04/16 00:36:02;;;;;;;0.80;0.80;;;10.00;67.50;;;;;;5017899;28;20042;-60
2023/04/16 00:38:29;;;;;;;0.90;0.90;;;9.90;67.60;;;;;;5031177;28;20037;-60
2023/04/16 00:40:57;;;;;;;2.83;0.90;;;9.90;67.60;;;;;;5022599;28;20041;-60
2023/04/16 00:43:24;;;;;;;0.80;0.80;;;9.90;67.60;;;;;;5024213;28;20029;-60
2023/04/16 00:45:55;;;;;;;1.00;0.70;;;9.90;67.80;;;;;;5020444;28;20033;-62
2023/04/16 00:48:21;;;;;;;1.08;0.90;;;9.90;67.70;;;;;;5021242;28;20478;-61
2023/04/16 00:50:47;;;;;;;1.00;0.80;;;9.90;67.70;;;;;;5028647;28;20014;-60
2023/04/16 00:53:14;;;;;;;0.82;0.80;;;9.90;67.80;;;;;;5020415;28;20679;-63
2023/04/16 00:55:39;;;;;;;1.23;0.90;;;9.90;67.90;;;;;;5030022;28;20026;-60
2023/04/16 00:58:05;;;;;;;1.38;1.27;;;9.90;68.00;;;;;;5022299;28;20044;-62
2023/04/16 01:00:31;;;;;;;1.15;1.00;;;10.00;68.00;;;;;;5024975;28;20069;-61
2023/04/16 01:02:58;;;;;;;0.90;0.90;;;10.00;68.00;;;;;;5024857;28;20081;-62
2023/04/16 01:05:25;;;;;;;0.73;0.73;;;9.90;68.00;;;;;;5021839;28;20022;-60
2023/04/16 01:07:50;;;;;;;1.73;1.10;;;10.00;68.10;;;;;;5025468;28;20342;-61
2023/04/16 01:10:16;;;;;;;1.23;1.15;;;10.00;68.10;;;;;;5017163;28;20039;-60
2023/04/16 01:12:42;;;;;;;1.42;1.05;;;10.00;68.10;;;;;;5027125;28;20030;-60
2023/04/16 01:15:08;;;;;;;1.33;1.23;;;10.00;68.10;;;;;;5023223;28;20034;-60
2023/04/16 01:17:33;;;;;;;1.10;1.00;;;10.00;68.10;;;;;;5023050;28;20034;-61
2023/04/16 01:19:59;;;;;;;1.38;1.27;;;10.00;68.10;;;;;;5027688;28;20810;-61
2023/04/16 01:22:29;;;;;;;1.20;1.10;;;10.00;68.10;;;;;;5024408;28;20483;-62
2023/04/16 01:24:54;;;;;;;1.83;1.27;;;10.00;68.10;;;;;;5041238;28;20030;-61
2023/04/16 01:27:20;;;;;;;1.20;1.10;;;10.00;68.10;;;;;;5020474;28;20033;-60
2023/04/16 01:29:46;;;;;;;1.17;0.85;;;10.00;68.10;;;;;;5019118;28;20049;-61
2023/04/16 01:32:11;;;;;;;1.13;0.93;;;10.00;68.20;;;;;;5021608;28;20037;-61
2023/04/16 01:34:37;;;;;;;0.98;0.98;;;10.00;68.20;;;;;;5027655;28;20133;-61
2023/04/16 01:37:03;;;;;;;1.77;1.00;;;10.00;68.30;;;;;;5022776;28;20050;-61
2023/04/16 01:39:28;;;;;;;0.90;0.90;;;10.00;68.40;;;;;;5022319;28;20021;-62
2023/04/16 01:41:54;;;;;;;1.40;1.15;;;10.00;68.50;;;;;;5025706;28;20803;-60
2023/04/16 01:44:21;;;;;;;2.00;1.27;;;10.00;68.40;;;;;;5022042;28;20642;-60
2023/04/16 01:46:47;;;;;;;1.13;1.00;;;10.00;68.30;;;;;;5032793;28;20057;-60
2023/04/16 01:49:14;;;;;;;0.80;0.80;;;10.00;68.20;;;;;;5022652;28;20034;-61
2023/04/16 01:51:40;;;;;;;0.85;0.85;;;10.00;68.30;;;;;;5028224;28;20049;-61
2023/04/16 01:54:06;;;;;;;1.10;0.93;;;10.00;68.40;;;;;;5046021;28;20060;-61
2023/04/16 01:56:32;;;;;;;0.70;0.70;;;10.00;68.40;;;;;;5029540;28;20022;-62
2023/04/16 01:58:58;;;;;;;0.95;0.85;;;10.00;68.50;;;;;;5026069;28;20070;-60
2023/04/16 02:01:24;;;;;;;1.35;0.80;;;10.00;68.60;;;;;;5022400;28;20045;-61
2023/04/16 02:03:51;;;;;;;0.80;0.80;;;10.00;68.70;;;;;;5026927;28;20033;-60
2023/04/16 02:06:16;;;;;;;1.10;0.82;;;10.00;68.70;;;;;;5027851;28;20026;-62
2023/04/16 02:08:42;;;;;;;1.40;0.82;;;10.00;68.70;;;;;;5022576;28;20076;-62
2023/04/16 02:11:08;;;;;;;0.95;0.93;;;10.00;68.70;;;;;;5022392;28;20038;-60
2023/04/16 02:13:33;;;;;;;1.13;0.80;;;10.00;68.70;;;;;;5024905;28;20049;-60
2023/04/16 02:15:59;;;;;;;1.17;0.98;;;10.00;68.70;;;;;;5024201;28;20034;-60
2023/04/16 02:18:25;;;;;;;1.98;0.93;;;10.00;68.70;;;;;;5021993;28;20033;-62
2023/04/16 02:20:50;;;;;;;2.10;1.13;;;10.00;68.60;;;;;;5017922;28;20030;-62
2023/04/16 02:23:16;;;;;;;1.48;1.00;;;10.00;68.60;;;;;;5029023;28;20022;-60
2023/04/16 02:25:43;;;;;;;2.00;1.10;;;10.10;68.80;;;;;;5027057;28;20030;-61
2023/04/16 02:28:12;;;;;;;1.55;1.30;;;10.10;68.80;;;;;;5023238;28;20042;-62
2023/04/16 02:30:39;;;;;;;1.02;1.02;;;10.10;68.80;;;;;;5021529;28;20017;-60
2023/04/16 02:33:06;;;;;;;0.77;0.77;;;10.10;68.80;;;;;;5032080;28;20113;-60
2023/04/16 02:35:35;;;;;;;1.40;1.20;;;10.10;68.80;;;;;;5034649;28;20021;-61
2023/04/16 02:38:01;;;;;;;1.27;1.17;;;10.10;69.00;;;;;;5027084;28;20489;-61
2023/04/16 02:40:32;;;;;;;1.25;1.15;;;10.00;68.90;;;;;;4980368;28;20026;-60
2023/04/16 02:42:58;;;;;;;3.20;1.55;;;10.10;69.40;;;;;;5026802;28;20025;-61
2023/04/16 02:45:24;;;;;;;1.50;1.05;;;10.10;69.10;;;;;;5022924;28;20057;-61
2023/04/16 02:47:50;;;;;;;5.72;1.30;;;10.10;69.10;;;;;;5030385;28;20060;-63
2023/04/16 02:50:16;;;;;;;1.17;1.08;;;10.10;69.20;;;;;;5044863;28;20051;-60
2023/04/16 02:52:42;;;;;;;1.40;1.30;;;10.10;69.20;;;;;;5027217;28;20077;-62
2023/04/16 02:55:08;;;;;;;1.33;1.23;;;10.10;69.20;;;;;;5017877;28;20022;-61
2023/04/16 02:57:34;;;;;;;1.25;1.15;;;10.10;69.20;;;;;;5024358;28;20014;-61
2023/04/16 03:00:00;;;;;;;1.63;1.33;;;10.10;69.20;;;;;;5025985;28;20025;-61
2023/04/16 03:02:26;;;;;;;1.30;1.20;;;10.10;69.40;;;;;;5037180;28;20037;-62
2023/04/16 03:04:52;;;;;;;1.30;1.20;;;10.10;69.40;;;;;;5023583;28;20026;-60
2023/04/16 03:07:18;;;;;;;1.40;1.30;;;10.10;69.40;;;;;;5029328;28;20034;-61
2023/04/16 03:09:44;;;;;;;1.30;1.20;;;10.10;69.40;;;;;;5033625;28;20079;-62
2023/04/16 03:12:09;;;;;;;1.77;1.40;;;10.10;69.40;;;;;;5029061;28;20049;-60
2023/04/16 03:14:35;;;;;;;1.67;1.35;;;10.10;69.30;;;;;;5031197;28;20053;-62
2023/04/16 03:17:01;;;;;;;1.08;1.02;;;10.20;69.40;;;;;;5020894;28;20026;-61
2023/04/16 03:19:27;;;;;;;1.23;1.17;;;10.10;69.40;;;;;;5024141;28;20077;-60
2023/04/16 03:21:52;;;;;;;1.90;1.45;;;10.10;69.50;;;;;;5022655;28;20057;-61
2023/04/16 03:24:18;;;;;;;1.38;1.27;;;10.10;69.50;;;;;;5024710;28;20088;-60
2023/04/16 03:26:43;;;;;;;1.38;1.25;;;10.20;69.60;;;;;;5031683;28;20022;-60
2023/04/16 03:29:09;;;;;;;1.60;1.15;;;10.20;69.70;;;;;;5030932;28;20034;-61
2023/04/16 03:31:35;;;;;;;1.60;1.50;;;10.20;69.70;;;;;;5025384;28;20048;-60
2023/04/16 03:34:01;;;;;;;1.42;1.33;;;10.20;69.80;;;;;;5021999;28;20113;-61
2023/04/16 03:36:26;;;;;;;2.20;1.33;;;10.20;69.70;;;;;;5028676;28;20083;-60
2023/04/16 03:38:52;;;;;;;1.63;1.52;;;10.20;70.40;;;;;;5028279;28;20080;-61
2023/04/16 03:41:18;;;;;;;1.83;1.73;;;10.20;69.80;;;;;;5021467;28;20030;-61
2023/04/16 03:43:44;;;;;;;4.55;1.83;;;10.20;69.80;;;;;;5022967;28;20028;-61
2023/04/16 03:46:10;;;;;;;1.60;1.50;;;10.20;69.80;;;;;;5057558;28;20104;-62
2023/04/16 03:48:35;;;;;;;1.67;1.58;;;10.20;69.80;;;;;;5031610;28;20034;-62
2023/04/16 03:51:01;;;;;;;2.05;1.60;;;10.20;69.90;;;;;;5021136;28;20074;-61
2023/04/16 03:53:27;;;;;;;2.03;1.70;;;10.20;70.00;;;;;;5019493;28;20514;-62
2023/04/16 03:55:53;;;;;;;1.42;1.33;;;10.20;69.70;;;;;;5017497;28;20021;-63
2023/04/16 03:58:19;;;;;;;1.45;1.35;;;10.20;69.40;;;;;;5059229;28;20025;-62
2023/04/16 04:00:45;;;;;;;4.85;3.05;;;10.20;69.40;;;;;;5025236;28;20030;-61
2023/04/16 04:03:11;;;;;;;4.57;3.30;;;10.10;69.60;;;;;;5019326;28;20468;-61
2023/04/16 04:05:40;;;;;;;2.33;1.67;;;10.10;69.60;;;;;;5017205;28;20050;-63
2023/04/16 04:08:06;;;;;;;1.70;1.42;;;10.10;69.80;;;;;;5026299;28;20054;-60
2023/04/16 04:10:32;;;;;;;1.50;1.33;;;10.10;69.70;;;;;;5056901;28;20109;-61
2023/04/16 04:12:59;;;;;;;1.77;1.58;;;10.00;69.60;;;;;;5024353;28;20123;-63
2023/04/16 04:15:24;;;;;;;1.83;1.27;;;10.00;69.80;;;;;;5022003;28;20026;-62
2023/04/16 04:17:50;;;;;;;1.67;1.40;;;10.00;70.00;;;;;;5032046;28;20103;-62
2023/04/16 04:20:16;;;;;;;1.60;1.50;;;10.00;70.30;;;;;;5019815;28;20033;-62
2023/04/16 04:22:41;;;;;;;1.40;1.30;;;10.00;70.60;;;;;;5024868;28;20060;-61
2023/04/16 04:25:09;;;;;;;3.55;1.10;;;10.00;70.80;;;;;;5023099;28;20042;-61
2023/04/16 04:27:35;;;;;;;1.35;1.25;;;10.00;70.90;;;;;;5067579;28;20381;-61
2023/04/16 04:30:01;;;;;;;1.08;1.00;;;10.00;70.90;;;;;;5030656;28;20041;-61
2023/04/16 04:32:26;;;;;;;1.10;1.00;;;10.00;71.00;;;;;;5029969;28;20025;-62
2023/04/16 04:34:52;;;;;;;1.75;0.80;;;10.10;71.10;;;;;;5025551;28;20049;-61
2023/04/16 04:37:18;;;;;;;0.80;0.80;;;10.10;71.10;;;;;;5027223;28;20147;-61
2023/04/16 04:39:45;;;;;;;2.33;0.70;;;10.10;71.10;;;;;;4982429;28;20029;-61
2023/04/16 04:42:11;;;;;;;11.30;4.70;;;10.20;71.20;;;;;;5022918;28;20025;-61
2023/04/16 04:44:36;;;;;;;8.18;3.30;;;10.20;71.00;;;;;;5020439;28;20037;-62
2023/04/16 04:47:02;;;;;;;5.32;2.50;;;10.20;71.00;;;;;;5022858;28;20045;-61
2023/04/16 04:49:29;;;;;;;5.57;2.30;;;10.20;70.80;;;;;;5023888;28;20041;-60
2023/04/16 04:51:55;;;;;;;4.63;1.80;;;10.30;71.70;;;;;;5023679;28;20034;-61
2023/04/16 04:54:20;;;;;;;2.00;1.20;;;10.30;70.90;;;;;;5023716;28;20056;-61
2023/04/16 04:56:46;;;;;;;1.90;1.15;;;10.30;71.00;;;;;;5026674;28;20022;-61
2023/04/16 04:59:12;;;;;;;1.90;1.13;;;10.30;71.00;;;;;;5029376;28;20029;-61
2023/04/16 05:01:38;;;;;;;1.92;0.90;;;10.30;70.90;;;;;;5047002;28;20077;-61
2023/04/16 05:04:03;;;;;;;0.82;0.70;;;10.30;70.90;;;;;;5023605;28;20507;-61
2023/04/16 05:06:30;;;;;;;0.70;0.70;;;10.40;71.10;;;;;;5025333;28;20026;-60
2023/04/16 05:08:56;;;;;;;1.75;0.60;;;10.40;71.10;;;;;;5019302;28;20482;-60
2023/04/16 05:11:21;;;;;;;0.93;0.70;;;10.40;71.20;;;;;;5021467;28;20086;-60
2023/04/16 05:13:47;;;;;;;2.65;1.05;;;10.50;71.10;;;;;;5033093;28;20495;-62
2023/04/16 05:16:13;;;;;;;0.70;0.45;;;10.50;71.10;;;;;;5028514;28;20053;-61
2023/04/16 05:18:38;;;;;;;0.50;0.50;;;10.40;71.10;;;;;;5018425;28;20033;-62
2023/04/16 05:21:04;;;;;;;1.88;0.60;;;10.50;71.10;;;;;;5024758;28;20033;-60
2023/04/16 05:23:31;;;;;;;0.52;0.50;;;10.50;71.10;;;;;;5025850;28;20021;-60
2023/04/16 05:25:57;;;;;;;1.27;0.55;;;10.60;71.20;;;;;;5032107;28;20040;-61
2023/04/16 05:28:23;;;;;;;1.65;0.50;;;10.60;70.80;;;;;;5024841;28;20046;-61
2023/04/16 05:30:48;;;;;;;2.40;0.60;;;10.60;70.80;;;;;;5039129;28;20026;-61
2023/04/16 05:33:14;;;;;;;0.80;0.60;;;10.60;70.80;;;;;;5026282;28;20033;-62
2023/04/16 05:35:39;;;;;;;0.60;0.60;;;10.60;70.90;;;;;;5029450;28;20026;-61
2023/04/16 05:38:05;;;;;;;2.47;0.60;;;10.60;71.00;;;;;;5029503;28;20052;-61
2023/04/16 05:40:31;;;;;;;0.65;0.65;;;10.60;70.90;;;;;;4964048;28;20120;-60
2023/04/16 05:42:56;;;;;;;0.82;0.60;;;10.70;70.90;;;;;;5030595;28;20033;-61
2023/04/16 05:45:22;;;;;;;0.50;0.50;;;10.70;71.00;;;;;;5026284;28;20049;-62
2023/04/16 05:47:48;;;;;;;0.60;0.60;;;10.70;71.00;;;;;;5036245;28;20361;-60
2023/04/16 05:50:14;;;;;;;0.60;0.50;;;10.70;71.00;;;;;;5029215;28;20041;-60
2023/04/16 05:52:39;;;;;;;0.47;0.47;;;10.70;70.90;;;;;;5029625;28;20137;-62
2023/04/16 05:55:06;;;;;;;0.50;0.50;;;10.70;70.90;;;;;;5024784;28;20040;-60
2023/04/16 05:57:32;;;;;;;1.88;0.50;;;10.80;70.80;;;;;;5029044;28;20037;-62
2023/04/16 05:59:58;;;;;;;0.40;0.40;;;10.80;70.80;;;;;;5022593;28;20106;-60
2023/04/16 06:02:23;;;;;;;0.50;0.50;;;10.70;70.80;;;;;;5032802;28;20038;-62
2023/04/16 06:04:49;;;;;;;1.15;0.70;;;10.80;71.00;;;;;;5028383;28;20033;-63
2023/04/16 06:07:15;;;;;;;1.17;0.75;;;10.80;70.40;;;;;;5023754;28;20052;-63
2023/04/16 06:09:40;;;;;;;0.95;0.60;;;10.80;70.20;;;;;;5027222;28;20037;-64
2023/04/16 06:12:06;;;;;;;0.65;0.55;;;10.80;69.90;;;;;;5028666;28;20022;-65
2023/04/16 06:14:32;;;;;;;0.68;0.68;;;10.80;70.20;;;;;;5028592;28;20076;-63
2023/04/16 06:16:57;;;;;;;0.60;0.60;;;10.80;70.40;;;;;;5042945;28;20041;-63
2023/04/16 06:19:23;;;;;;;0.80;0.68;;;10.80;70.20;;;;;;5023096;28;20057;-63
2023/04/16 06:21:49;;;;;;;0.95;0.60;;;10.80;70.10;;;;;;5029731;28;20022;-63
2023/04/16 06:24:17;;;;;;;0.60;0.60;;;10.80;70.40;;;;;;5036492;28;20029;-65
2023/04/16 06:26:43;;;;;;;0.70;0.70;;;10.80;70.60;;;;;;5025491;28;20076;-64
2023/04/16 06:29:08;;;;;;;1.55;0.57;;;10.80;70.60;;;;;;5039309;28;20053;-65
2023/04/16 06:31:34;;;;;;;0.70;0.70;;;10.80;70.40;;;;;;5027646;28;20047;-63
2023/04/16 06:34:00;;;;;;;0.60;0.60;;;10.80;70.60;;;;;;5028053;28;20112;-63
2023/04/16 06:36:26;;;;;;;0.90;0.75;;;10.90;70.90;;;;;;5064063;28;20057;-64
2023/04/16 06:38:52;;;;;;;0.57;0.57;;;10.90;70.80;;;;;;5024629;28;20024;-63
2023/04/16 06:41:21;;;;;;;0.70;0.70;;;10.90;70.60;;;;;;5030462;28;20057;-63
2023/04/16 06:43:47;;;;;;;0.70;0.70;;;10.90;70.80;;;;;;5027752;28;20053;-64
2023/04/16 06:46:12;;;;;;;0.60;0.60;;;10.90;70.90;;;;;;5060659;28;20029;-63
2023/04/16 06:48:38;;;;;;;0.80;0.80;;;11.00;70.60;;;;;;5026707;28;20033;-63
2023/04/16 06:51:04;;;;;;;0.68;0.50;;;11.00;70.80;;;;;;5033000;28;20085;-64
2023/04/16 06:53:30;;;;;;;0.90;0.60;;;11.00;70.80;;;;;;5023643;28;20084;-63
2023/04/16 06:55:55;;;;;;;0.60;0.60;;;11.00;70.20;;;;;;5023005;28;20064;-63
2023/04/16 06:58:21;;;;;;;0.60;0.60;;;11.00;70.20;;;;;;5027280;28;20056;-64
2023/04/16 07:00:47;;;;;;;0.60;0.60;;;11.10;70.50;;;;;;5028574;28;20368;-64
2023/04/16 07:03:13;;;;;;;0.50;0.50;;;11.10;70.60;;;;;;5020782;28;20037;-63
2023/04/16 07:05:38;;;;;;;1.30;0.65;;;11.10;70.70;;;;;;5013600;28;20021;-62
2023/04/16 07:08:04;;;;;;;0.52;0.50;;;11.10;70.90;;;;;;5031896;28;20038;-63
2023/04/16 07:10:30;;;;;;;0.50;0.50;;;11.20;70.80;;;;;;5021567;28;20030;-63
2023/04/16 07:12:56;;;;;;;0.60;0.50;;;11.20;70.60;;;;;;5024864;28;20021;-63
2023/04/16 07:15:22;;;;;;;0.50;0.50;;;11.30;70.50;;;;;;5046056;28;20068;-63
2023/04/16 07:17:47;;;;;;;0.70;0.70;;;11.30;70.70;;;;;;5026402;28;20052;-63
2023/04/16 07:20:13;;;;;;;0.65;0.60;;;11.30;70.60;;;;;;5021745;28;20080;-64
2023/04/16 07:22:39;;;;;;;0.50;0.50;;;11.40;70.30;;;;;;5026337;28;20515;-64
2023/04/16 07:25:05;;;;;;;0.60;0.60;;;11.40;70.30;;;;;;5023717;28;20026;-63
2023/04/16 07:27:30;;;;;;;0.60;0.60;;;11.40;70.10;;;;;;5028217;28;20046;-64
2023/04/16 07:29:56;;;;;;;0.70;0.70;;;11.50;70.40;;;;;;5029843;28;20061;-64
2023/04/16 07:32:22;;;;;;;0.70;0.70;;;11.50;70.60;;;;;;5047121;28;20025;-63
2023/04/16 07:34:47;;;;;;;0.60;0.60;;;11.50;70.40;;;;;;5023566;28;20026;-64
2023/04/16 07:37:13;;;;;;;0.80;0.60;;;11.50;70.20;;;;;;5024003;28;20057;-64
2023/04/16 07:39:39;;;;;;;0.90;0.75;;;11.60;70.30;;;;;;5018093;28;20396;-64
2023/04/16 07:42:05;;;;;;;0.75;0.75;;;11.60;70.40;;;;;;5025893;28;20361;-63
2023/04/16 07:44:32;;;;;;;0.90;0.80;;;11.70;70.20;;;;;;5033484;28;20052;-64
2023/04/16 07:46:58;;;;;;;0.70;0.70;;;11.70;70.20;;;;;;5044140;28;20484;-63
2023/04/16 07:49:24;;;;;;;0.98;0.88;;;11.70;70.20;;;;;;5025676;28;20105;-63
2023/04/16 07:51:49;;;;;;;0.80;0.80;;;11.70;70.10;;;;;;5021785;28;20030;-62
2023/04/16 07:54:15;;;;;;;0.80;0.80;;;11.80;69.90;;;;;;5025306;28;20026;-63
2023/04/16 07:56:41;;;;;;;0.70;0.70;;;11.80;69.80;;;;;;5017258;28;20026;-63
2023/04/16 07:59:06;;;;;;;1.20;1.00;;;11.80;69.70;;;;;;5025974;28;20079;-64
2023/04/16 08:01:32;;;;;;;1.67;1.17;;;11.80;69.80;;;;;;5028130;28;20037;-64
2023/04/16 08:03:58;;;;;;;1.20;1.10;;;11.80;69.80;;;;;;5021505;28;20057;-63
2023/04/16 08:06:25;;;;;;;1.33;1.23;;;11.80;69.80;;;;;;5026746;28;20080;-64
2023/04/16 08:08:51;;;;;;;1.33;1.13;;;11.80;69.60;;;;;;5020202;28;20030;-63
2023/04/16 08:11:16;;;;;;;1.05;1.00;;;11.80;69.60;;;;;;5020113;28;20038;-64
2023/04/16 08:13:42;;;;;;;4.55;1.60;;;11.90;69.70;;;;;;5027943;28;20028;-64
2023/04/16 08:16:07;;;;;;;1.00;1.00;;;11.90;69.30;;;;;;5029449;28;20026;-63
2023/04/16 08:18:33;;;;;;;1.20;1.00;;;11.90;69.40;;;;;;5023899;28;20036;-63
2023/04/16 08:20:59;;;;;;;1.63;1.15;;;11.90;69.30;;;;;;5024334;28;20026;-64
2023/04/16 08:23:25;;;;;;;3.90;2.20;;;11.90;69.50;;;;;;5024522;28;20155;-63
2023/04/16 08:25:50;;;;;;;1.60;1.48;;;11.90;69.30;;;;;;5018554;28;20116;-64
2023/04/16 08:28:16;;;;;;;1.30;1.00;;;11.90;69.50;;;;;;5027404;28;20034;-64
2023/04/16 08:30:41;;;;;;;1.40;1.30;;;11.90;69.40;;;;;;5023820;28;20056;-64
2023/04/16 08:33:07;;;;;;;1.23;1.10;;;11.90;69.30;;;;;;5027874;28;20056;-63
2023/04/16 08:35:33;;;;;;;1.70;1.15;;;11.90;69.60;;;;;;5024523;28;20033;-64
2023/04/16 08:38:00;;;;;;;2.45;1.33;;;11.90;69.50;;;;;;5027199;28;20053;-63
2023/04/16 08:40:27;;;;;;;1.20;1.10;;;12.00;69.60;;;;;;5032551;28;20026;-64
2023/04/16 08:42:57;;;;;;;1.10;1.00;;;12.00;69.80;;;;;;5023433;28;20030;-64
2023/04/16 08:45:25;;;;;;;1.33;1.20;;;12.00;70.00;;;;;;5026358;28;20022;-64
2023/04/16 08:47:52;;;;;;;1.20;1.08;;;12.00;69.80;;;;;;5022869;28;20128;-63
2023/04/16 08:50:25;;;;;;;2.78;1.45;;;12.10;70.70;;;;;;5017051;28;20034;-66
2023/04/16 08:52:58;;;;;;;1.17;1.07;;;12.10;69.90;;;;;;5020445;28;20021;-64
2023/04/16 08:55:34;;;;;;;1.98;1.20;;;12.10;69.60;;;;;;5026591;28;20026;-64
2023/04/16 08:58:02;;;;;;;1.20;1.10;;;12.10;69.40;;;;;;5025477;28;20049;-65
2023/04/16 09:00:30;;;;;;;1.00;0.90;;;12.10;69.10;;;;;;5021299;28;20030;-64
2023/04/16 09:02:56;;;;;;;1.10;1.00;;;12.10;69.10;;;;;;5031598;28;20033;-63
2023/04/16 09:05:24;;;;;;;1.20;1.10;;;12.10;69.30;;;;;;5023218;28;20030;-64
2023/04/16 09:07:53;;;;;;;1.10;0.95;;;12.10;69.30;;;;;;5032269;28;20048;-64
2023/04/16 09:10:19;;;;;;;0.82;0.82;;;12.10;69.40;;;;;;5017443;28;20060;-64
2023/04/16 09:12:45;;;;;;;1.00;1.00;;;12.10;69.40;;;;;;5020763;28;20033;-64
2023/04/16 09:15:12;;;;;;;1.10;1.00;;;12.20;69.40;;;;;;5024113;28;20097;-64
2023/04/16 09:17:38;;;;;;;1.05;1.00;;;12.20;69.30;;;;;;5022551;28;20026;-63
2023/04/16 09:20:07;;;;;;;0.93;0.93;;;12.20;69.30;;;;;;5013659;28;20038;-63
2023/04/16 09:22:34;;;;;;;0.80;0.80;;;12.20;69.20;;;;;;5022580;28;20026;-64
2023/04/16 09:24:59;;;;;;;1.02;0.90;;;12.20;69.20;;;;;;5015237;28;20022;-64
2023/04/16 09:27:26;;;;;;;1.02;0.95;;;12.20;69.20;;;;;;5021362;28;20065;-63
2023/04/16 09:29:51;;;;;;;1.10;1.00;;;12.10;69.10;;;;;;5020373;28;20056;-63
2023/04/16 09:32:25;;;;;;;1.05;0.95;;;12.20;69.30;;;;;;5044430;28;20041;-64
2023/04/16 09:35:01;;;;;;;1.73;1.10;;;12.10;69.50;;;;;;5022534;28;20017;-63
2023/04/16 09:37:30;;;;;;;1.67;1.30;;;12.20;70.50;;;;;;5026456;28;20102;-64
2023/04/16 09:40:02;;;;;;;1.30;1.20;;;12.20;69.40;;;;;;5027095;28;20034;-62
2023/04/16 09:42:30;;;;;;;1.58;1.27;;;12.20;69.40;;;;;;5019784;28;20018;-64
2023/04/16 09:44:57;;;;;;;1.95;1.60;;;12.20;69.40;;;;;;5017783;28;20033;-63
2023/04/16 09:47:25;;;;;;;1.98;1.58;;;12.10;69.30;;;;;;5021067;28;20056;-63
2023/04/16 09:49:51;;;;;;;1.33;1.23;;;12.20;69.30;;;;;;5027960;28;20057;-63
2023/04/16 09:52:21;;;;;;;1.40;1.23;;;12.10;69.30;;;;;;5027892;28;20037;-63
2023/04/16 09:54:53;;;;;;;1.67;1.40;;;12.20;69.70;;;;;;5027517;28;21016;-63
2023/04/16 09:57:20;;;;;;;10.60;1.70;;;12.10;69.70;;;;;;5016325;28;20038;-63
2023/04/16 10:00:07;;;;;;;2.05;1.65;;;12.20;69.70;;;;;;5025468;28;20030;-63
2023/04/16 10:02:33;;;;;;;3.17;2.08;;;12.20;69.40;;;;;;5040948;28;20079;-63
2023/04/16 10:05:02;;;;;;;1.63;1.52;;;12.20;69.60;;;;;;5033292;28;20037;-63
2023/04/16 10:07:28;;;;;;;2.47;1.83;;;12.20;70.00;;;;;;5033226;28;20041;-63
2023/04/16 10:09:54;;;;;;;2.00;1.80;;;12.30;69.60;;;;;;5025062;28;20046;-63
2023/04/16 10:12:21;;;;;;;1.90;1.70;;;12.30;69.50;;;;;;5026397;28;20033;-63
2023/04/16 10:14:46;;;;;;;2.28;2.03;;;12.30;69.50;;;;;;5027926;28;20033;-63
2023/04/16 10:17:12;;;;;;;3.47;2.20;;;12.30;69.70;;;;;;5024411;28;20665;-63
2023/04/16 10:19:39;;;;;;;2.42;1.98;;;12.30;69.70;;;;;;5033032;28;20121;-64
2023/04/16 10:22:05;;;;;;;2.47;2.00;;;12.30;70.10;;;;;;5018663;28;20031;-62
2023/04/16 10:24:32;;;;;;;2.00;1.65;;;12.30;70.40;;;;;;5026913;28;20036;-63
2023/04/16 10:26:59;;;;;;;2.35;1.73;;;12.40;69.90;;;;;;5026493;28;20028;-63
2023/04/16 10:29:27;;;;;;;7.97;4.32;;;12.50;69.50;;;;;;5022982;28;20050;-63
2023/04/16 10:31:54;;;;;;;4.00;1.98;;;12.50;69.40;;;;;;5025126;28;20089;-62
2023/04/16 10:34:20;;;;;;;1.60;1.50;;;12.50;69.50;;;;;;5021806;28;20053;-65
2023/04/16 10:36:53;;;;;;;1.50;1.30;;;12.50;69.50;;;;;;5018589;28;20489;-63
2023/04/16 10:39:26;;;;;;;1.75;1.42;;;12.50;69.40;;;;;;5022261;28;20029;-64
2023/04/16 10:42:07;;;;;;;1.73;1.30;;;12.50;69.30;;;;;;5033269;28;20040;-64
2023/04/16 10:44:35;;;;;;;1.38;1.27;;;12.50;70.10;;;;;;5018115;28;20029;-63
2023/04/16 10:47:00;;;;;;;2.13;1.48;;;12.60;70.00;;;;;;5016379;28;20025;-63
2023/04/16 10:49:26;;;;;;;1.92;1.10;;;12.60;69.80;;;;;;5026806;28;20087;-63
2023/04/16 10:52:01;;;;;;;1.30;1.10;;;12.70;69.90;;;;;;5025113;28;20057;-63
2023/04/16 10:54:28;;;;;;;0.93;0.93;;;12.70;70.40;;;;;;5034755;28;20022;-63
2023/04/16 10:56:58;;;;;;;1.38;1.10;;;12.80;69.90;;;;;;5023744;28;20029;-64
2023/04/16 10:59:29;;;;;;;1.00;1.00;;;12.90;69.80;;;;;;5027256;28;20085;-64
2023/04/16 11:01:57;;;;;;;2.90;1.20;;;13.00;69.70;;;;;;5018146;28;20030;-64
2023/04/16 11:04:23;;;;;;;1.10;1.00;;;13.00;69.40;;;;;;5022720;28;20160;-63
2023/04/16 11:07:07;;;;;;;1.48;0.85;;;13.10;69.30;;;;;;5032086;28;20431;-64
2023/04/16 11:09:58;;;;;;;0.95;0.80;;;13.10;68.90;;;;;;5024846;28;20088;-63
2023/04/16 11:12:36;;;;;;;1.98;1.58;;;13.10;68.60;;;;;;5019057;28;20029;-64
2023/04/16 11:15:15;;;;;;;1.23;1.13;;;13.10;68.90;;;;;;5024292;28;20022;-62
2023/04/16 11:17:46;;;;;;;1.30;1.20;;;13.20;68.90;;;;;;5022054;28;20030;-63
2023/04/16 11:20:16;;;;;;;1.30;1.13;;;13.20;68.40;;;;;;5025908;28;20561;-63
2023/04/16 11:22:44;;;;;;;0.85;0.80;;;13.20;68.40;;;;;;5021027;28;20021;-64
2023/04/16 11:25:10;;;;;;;1.27;1.10;;;13.20;68.50;;;;;;5030256;28;20025;-63
2023/04/16 11:27:36;;;;;;;1.10;0.90;;;13.20;68.30;;;;;;5023675;28;20038;-63
2023/04/16 11:30:03;;;;;;;1.00;0.90;;;13.20;68.30;;;;;;5023649;28;20063;-64
2023/04/16 11:32:33;;;;;;;1.35;1.10;;;13.20;68.20;;;;;;5020261;28;20044;-63
2023/04/16 11:35:15;;;;;;;1.65;1.10;;;13.30;68.10;;;;;;5024394;28;20040;-63
2023/04/16 11:37:42;;;;;;;1.10;1.00;;;13.30;68.30;;;;;;5048977;28;20065;-63
2023/04/16 11:40:08;;;;;;;1.30;1.20;;;13.30;68.50;;;;;;5029148;28;20082;-63
2023/04/16 11:42:42;;;;;;;0.88;0.88;;;13.40;68.30;;;;;;5024629;28;20223;-63
2023/04/16 11:45:10;;;;;;;1.48;0.90;;;13.40;68.70;;;;;;5026178;28;20093;-63
2023/04/16 11:47:54;;;;;;;1.00;1.00;;;13.50;68.20;;;;;;5050261;28;20030;-63
2023/04/16 11:50:24;;;;;;;0.90;0.90;;;13.50;69.00;;;;;;5017642;28;20049;-63
2023/04/16 11:52:52;;;;;;;1.30;0.90;;;13.50;67.90;;;;;;5021618;28;20038;-63
2023/04/16 11:55:18;;;;;;;1.23;1.13;;;13.50;67.90;;;;;;5023974;28;20108;-62
2023/04/16 11:57:44;;;;;;;1.92;1.40;;;13.50;68.10;;;;;;5022984;28;20052;-63
2023/04/16 12:00:12;;;;;;;2.75;1.00;;;13.50;68.10;;;;;;5013114;28;20119;-63
2023/04/16 12:02:40;;;;;;;1.02;1.00;;;13.50;68.10;;;;;;5030866;28;20030;-62
2023/04/16 12:05:27;;;;;;;2.47;1.08;;;13.50;67.90;;;;;;5028321;28;20097;-63
2023/04/16 12:07:54;;;;;;;1.52;1.42;;;13.60;67.90;;;;;;5023070;28;20033;-62
2023/04/16 12:10:20;;;;;;;1.80;1.70;;;13.60;67.70;;;;;;5030558;28;20060;-63
2023/04/16 12:12:45;;;;;;;2.22;1.80;;;13.60;67.00;;;;;;5026287;28;20021;-63
2023/04/16 12:15:11;;;;;;;1.70;1.35;;;13.50;66.60;;;;;;5021501;28;20054;-62
2023/04/16 12:17:37;;;;;;;1.70;1.40;;;13.50;66.70;;;;;;5023276;28;20075;-62
2023/04/16 12:20:08;;;;;;;1.63;1.40;;;13.40;66.70;;;;;;5015451;28;20029;-62
2023/04/16 12:22:39;;;;;;;1.42;1.33;;;13.30;66.80;;;;;;5028925;28;20033;-62
2023/04/16 12:25:06;;;;;;;1.52;1.30;;;13.20;67.20;;;;;;5019769;28;20085;-63
2023/04/16 12:27:49;;;;;;;2.03;1.77;;;13.20;67.60;;;;;;5025090;28;20033;-62
2023/04/16 12:30:19;;;;;;;1.52;1.40;;;13.10;68.30;;;;;;5056571;28;20136;-64
2023/04/16 12:32:49;;;;;;;2.22;1.60;;;13.10;68.10;;;;;;5025863;28;20029;-62
2023/04/16 12:35:32;;;;;;;1.63;1.27;;;13.10;67.80;;;;;;5030351;28;20037;-63
2023/04/16 12:37:59;;;;;;;1.35;1.25;;;13.10;68.40;;;;;;5024188;28;20064;-62
2023/04/16 12:40:25;;;;;;;1.42;1.33;;;13.10;67.70;;;;;;5021240;28;20131;-63
2023/04/16 12:42:51;;;;;;;1.70;1.30;;;13.10;67.40;;;;;;5028323;28;20026;-63
2023/04/16 12:45:16;;;;;;;2.05;1.10;;;13.00;67.60;;;;;;5024569;28;20037;-62
2023/04/16 12:47:42;;;;;;;1.27;1.05;;;13.00;67.90;;;;;;5026135;28;20081;-63